createdAt,value
2018-12-07T00:00:04.971Z,9.40
2018-12-07T00:01:04.443Z,9.40
2018-12-07T00:02:04.602Z,9.40
2018-12-07T00:03:05.098Z,9.40
2018-12-07T00:04:04.537Z,9.40
2018-12-07T00:05:05.109Z,9.40
2018-12-07T00:06:04.607Z,9.40
2018-12-07T00:07:05.223Z,9.40
2018-12-07T00:08:04.328Z,9.40
2018-12-07T00:09:04.206Z,9.40
2018-12-07T00:10:04.750Z,9.40
2018-12-07T00:11:04.924Z,9.40
2018-12-07T00:12:04.984Z,9.40
2018-12-07T00:13:05.101Z,9.40
2018-12-07T00:14:05.169Z,9.40
2018-12-07T00:15:04.631Z,9.40
2018-12-07T00:16:04.396Z,9.40
2018-12-07T00:17:04.815Z,9.40
2018-12-07T00:18:04.899Z,9.40
2018-12-07T00:19:05.122Z,9.40
2018-12-07T00:20:04.286Z,9.40
2018-12-07T00:21:05.185Z,9.40
2018-12-07T00:22:04.724Z,9.40
2018-12-07T00:23:05.005Z,9.40
2018-12-07T00:24:04.378Z,9.40
2018-12-07T00:25:04.627Z,9.40
2018-12-07T00:26:04.999Z,9.40
2018-12-07T00:27:04.941Z,9.40
2018-12-07T00:28:09.984Z,9.40
2018-12-07T00:29:04.362Z,9.40
2018-12-07T00:30:04.674Z,9.40
2018-12-07T00:31:04.685Z,9.40
2018-12-07T00:32:04.909Z,9.50
2018-12-07T00:33:04.489Z,9.50
2018-12-07T00:34:04.632Z,9.50
2018-12-07T00:35:04.690Z,9.50
2018-12-07T00:36:04.775Z,9.50
2018-12-07T00:37:05.135Z,9.50
2018-12-07T00:38:04.319Z,9.50
2018-12-07T00:39:04.855Z,9.50
2018-12-07T00:40:05.171Z,9.50
2018-12-07T00:41:05.124Z,9.50
2018-12-07T00:42:04.784Z,9.50
2018-12-07T00:43:04.735Z,9.50
2018-12-07T00:44:04.829Z,9.50
2018-12-07T00:45:04.557Z,9.60
2018-12-07T00:46:04.555Z,9.60
2018-12-07T00:47:04.998Z,9.60
2018-12-07T00:48:05.034Z,9.60
2018-12-07T00:49:05.125Z,9.60
2018-12-07T00:50:04.775Z,9.60
2018-12-07T00:51:04.837Z,9.60
2018-12-07T00:52:04.744Z,9.60
2018-12-07T00:53:05.011Z,9.60
2018-12-07T00:54:05.571Z,9.60
2018-12-07T00:55:05.240Z,9.60
2018-12-07T00:56:04.295Z,9.70
2018-12-07T00:57:04.426Z,9.70
2018-12-07T00:58:09.741Z,9.70
2018-12-07T00:59:05.312Z,9.70
2018-12-07T01:00:04.743Z,9.70
2018-12-07T01:01:05.184Z,9.70
2018-12-07T01:02:04.823Z,9.70
2018-12-07T01:03:04.731Z,9.70
2018-12-07T01:04:04.463Z,9.70
2018-12-07T01:05:04.826Z,9.70
2018-12-07T01:06:05.026Z,9.70
2018-12-07T01:07:05.024Z,9.70
2018-12-07T01:08:04.301Z,9.70
2018-12-07T01:09:04.527Z,9.70
2018-12-07T01:10:04.390Z,9.70
2018-12-07T01:11:04.331Z,9.70
2018-12-07T01:12:04.525Z,9.70
2018-12-07T01:13:04.260Z,9.70
2018-12-07T01:14:04.359Z,9.70
2018-12-07T01:15:04.387Z,9.70
2018-12-07T01:16:04.892Z,9.70
2018-12-07T01:17:05.171Z,9.70
2018-12-07T01:18:04.857Z,9.70
2018-12-07T01:19:04.488Z,9.70
2018-12-07T01:20:04.961Z,9.70
2018-12-07T01:21:04.423Z,9.70
2018-12-07T01:22:04.806Z,9.70
2018-12-07T01:23:04.747Z,9.70
2018-12-07T01:24:05.102Z,9.70
2018-12-07T01:25:04.479Z,9.70
2018-12-07T01:26:04.606Z,9.70
2018-12-07T01:27:04.513Z,9.70
2018-12-07T01:28:09.684Z,9.70
2018-12-07T01:29:05.100Z,9.70
2018-12-07T01:30:05.169Z,9.70
2018-12-07T01:31:05.136Z,9.70
2018-12-07T01:32:04.364Z,9.80
2018-12-07T01:33:04.441Z,9.80
2018-12-07T01:34:05.079Z,9.80
2018-12-07T01:35:04.311Z,9.80
2018-12-07T01:36:05.012Z,9.80
2018-12-07T01:37:04.225Z,9.80
2018-12-07T01:38:04.545Z,9.80
2018-12-07T01:39:04.479Z,9.80
2018-12-07T01:40:05.270Z,9.80
2018-12-07T01:41:04.957Z,9.80
2018-12-07T01:42:05.229Z,9.80
2018-12-07T01:43:04.662Z,9.80
2018-12-07T01:44:05.118Z,9.80
2018-12-07T01:45:05.145Z,9.90
2018-12-07T01:46:04.642Z,9.90
2018-12-07T01:47:04.710Z,9.90
2018-12-07T01:48:04.414Z,9.90
2018-12-07T01:49:04.585Z,9.90
2018-12-07T01:50:04.690Z,9.90
2018-12-07T01:51:04.813Z,9.90
2018-12-07T01:52:04.718Z,9.90
2018-12-07T01:53:04.258Z,9.90
2018-12-07T01:54:04.407Z,9.90
2018-12-07T01:55:04.599Z,9.90
2018-12-07T01:56:04.316Z,10.00
2018-12-07T01:57:04.460Z,10.00
2018-12-07T01:58:04.557Z,10.00
2018-12-07T01:59:04.630Z,10.00
2018-12-07T02:00:05.009Z,10.00
2018-12-07T02:01:04.403Z,10.00
2018-12-07T02:02:04.649Z,10.00
2018-12-07T02:03:04.635Z,10.00
2018-12-07T02:04:04.830Z,10.00
2018-12-07T02:05:04.352Z,10.00
2018-12-07T02:06:05.125Z,10.00
2018-12-07T02:07:05.099Z,10.00
2018-12-07T02:08:04.674Z,10.10
2018-12-07T02:09:05.125Z,10.10
2018-12-07T02:10:04.475Z,10.10
2018-12-07T02:11:05.194Z,10.10
2018-12-07T02:12:04.472Z,10.10
2018-12-07T02:13:04.673Z,10.10
2018-12-07T02:14:04.871Z,10.10
2018-12-07T02:15:04.468Z,10.10
2018-12-07T02:16:04.666Z,10.10
2018-12-07T02:17:05.231Z,10.20
2018-12-07T02:18:04.762Z,10.10
2018-12-07T02:19:04.920Z,10.10
2018-12-07T02:20:04.185Z,10.20
2018-12-07T02:21:04.359Z,10.20
2018-12-07T02:22:04.567Z,10.20
2018-12-07T02:23:04.875Z,10.20
2018-12-07T02:24:04.898Z,10.20
2018-12-07T02:25:04.445Z,10.10
2018-12-07T02:26:04.834Z,10.20
2018-12-07T02:27:05.171Z,10.20
2018-12-07T02:28:09.418Z,10.20
2018-12-07T02:29:04.859Z,10.20
2018-12-07T02:30:04.932Z,10.20
2018-12-07T02:31:04.968Z,10.20
2018-12-07T02:32:05.093Z,10.20
2018-12-07T02:33:04.687Z,10.20
2018-12-07T02:34:04.822Z,10.20
2018-12-07T02:35:04.963Z,10.20
2018-12-07T02:36:04.673Z,10.20
2018-12-07T02:37:05.224Z,10.20
2018-12-07T02:38:04.909Z,10.20
2018-12-07T02:39:04.965Z,10.20
2018-12-07T02:40:05.063Z,10.30
2018-12-07T02:41:04.639Z,10.30
2018-12-07T02:42:04.721Z,10.30
2018-12-07T02:43:05.052Z,10.30
2018-12-07T02:44:05.059Z,10.30
2018-12-07T02:45:05.209Z,10.30
2018-12-07T02:46:04.561Z,10.30
2018-12-07T02:47:04.713Z,10.30
2018-12-07T02:48:09.864Z,10.30
2018-12-07T02:49:04.354Z,10.30
2018-12-07T02:50:04.290Z,10.30
2018-12-07T02:51:04.514Z,10.30
2018-12-07T02:52:04.536Z,10.30
2018-12-07T02:53:05.060Z,10.30
2018-12-07T02:54:05.094Z,10.30
2018-12-07T02:55:04.508Z,10.30
2018-12-07T02:56:05.182Z,10.30
2018-12-07T02:57:04.680Z,10.30
2018-12-07T02:58:04.923Z,10.30
2018-12-07T02:59:04.448Z,10.30
2018-12-07T03:00:04.508Z,10.30
2018-12-07T03:01:05.126Z,10.30
2018-12-07T03:02:04.846Z,10.40
2018-12-07T03:03:04.447Z,10.40
2018-12-07T03:04:04.765Z,10.40
2018-12-07T03:05:04.989Z,10.40
2018-12-07T03:06:04.607Z,10.40
2018-12-07T03:07:05.109Z,10.40
2018-12-07T03:08:04.859Z,10.40
2018-12-07T03:09:05.038Z,10.40
2018-12-07T03:10:04.346Z,10.40
2018-12-07T03:11:04.964Z,10.40
2018-12-07T03:12:04.497Z,10.40
2018-12-07T03:13:04.821Z,10.40
2018-12-07T03:14:04.197Z,10.40
2018-12-07T03:15:04.918Z,10.40
2018-12-07T03:16:04.845Z,10.40
2018-12-07T03:17:04.959Z,10.40
2018-12-07T03:18:05.119Z,10.40
2018-12-07T03:19:04.331Z,10.40
2018-12-07T03:20:04.610Z,10.40
2018-12-07T03:21:04.746Z,10.40
2018-12-07T03:22:04.920Z,10.40
2018-12-07T03:23:04.879Z,10.40
2018-12-07T03:24:04.439Z,10.40
2018-12-07T03:25:04.308Z,10.40
2018-12-07T03:26:05.047Z,10.40
2018-12-07T03:27:05.180Z,10.40
2018-12-07T03:28:09.520Z,10.40
2018-12-07T03:29:04.902Z,10.40
2018-12-07T03:30:04.336Z,10.50
2018-12-07T03:31:04.517Z,10.40
2018-12-07T03:32:05.048Z,10.40
2018-12-07T03:33:05.436Z,10.50
2018-12-07T03:34:05.130Z,10.50
2018-12-07T03:35:04.290Z,10.50
2018-12-07T03:36:04.642Z,10.50
2018-12-07T03:37:04.768Z,10.50
2018-12-07T03:38:04.307Z,10.50
2018-12-07T03:39:04.394Z,10.50
2018-12-07T03:40:04.540Z,10.50
2018-12-07T03:41:04.745Z,10.50
2018-12-07T03:42:04.351Z,10.50
2018-12-07T03:43:04.416Z,10.50
2018-12-07T03:44:04.872Z,10.50
2018-12-07T03:45:04.569Z,10.50
2018-12-07T03:46:04.939Z,10.50
2018-12-07T03:47:04.521Z,10.50
2018-12-07T03:48:09.832Z,10.50
2018-12-07T03:49:04.353Z,10.50
2018-12-07T03:50:04.885Z,10.50
2018-12-07T03:51:04.873Z,10.50
2018-12-07T03:52:04.563Z,10.50
2018-12-07T03:53:04.841Z,10.50
2018-12-07T03:54:04.877Z,10.50
2018-12-07T03:55:04.944Z,10.50
2018-12-07T03:56:04.550Z,10.50
2018-12-07T03:57:04.831Z,10.50
2018-12-07T03:58:04.923Z,10.50
2018-12-07T03:59:05.025Z,10.50
2018-12-07T04:00:05.125Z,10.50
2018-12-07T04:01:04.613Z,10.50
2018-12-07T04:02:05.093Z,10.50
2018-12-07T04:03:04.309Z,10.50
2018-12-07T04:04:04.599Z,10.50
2018-12-07T04:05:04.542Z,10.50
2018-12-07T04:06:04.624Z,10.50
2018-12-07T04:07:04.686Z,10.60
2018-12-07T04:08:05.296Z,10.50
2018-12-07T04:09:04.224Z,10.50
2018-12-07T04:10:04.610Z,10.60
2018-12-07T04:11:04.752Z,10.60
2018-12-07T04:12:04.764Z,10.60
2018-12-07T04:13:04.656Z,10.60
2018-12-07T04:14:05.077Z,10.60
2018-12-07T04:15:04.689Z,10.50
2018-12-07T04:16:04.717Z,10.50
2018-12-07T04:17:04.900Z,10.60
2018-12-07T04:18:04.228Z,10.50
2018-12-07T04:19:04.380Z,10.50
2018-12-07T04:20:04.829Z,10.50
2018-12-07T04:21:04.783Z,10.50
2018-12-07T04:22:04.438Z,10.60
2018-12-07T04:23:04.618Z,10.50
2018-12-07T04:24:04.912Z,10.60
2018-12-07T04:25:04.240Z,10.60
2018-12-07T04:26:04.752Z,10.60
2018-12-07T04:27:04.814Z,10.60
2018-12-07T04:28:04.807Z,10.50
2018-12-07T04:29:04.986Z,10.60
2018-12-07T04:30:04.390Z,10.60
2018-12-07T04:31:04.825Z,10.60
2018-12-07T04:32:04.847Z,10.60
2018-12-07T04:33:04.849Z,10.60
2018-12-07T04:34:04.367Z,10.60
2018-12-07T04:35:04.397Z,10.60
2018-12-07T04:36:07.259Z,10.60
2018-12-07T04:37:04.388Z,10.60
2018-12-07T04:38:04.794Z,10.60
2018-12-07T04:39:05.080Z,10.60
2018-12-07T04:40:10.053Z,10.60
2018-12-07T04:41:04.456Z,10.60
2018-12-07T04:42:04.435Z,10.60
2018-12-07T04:43:04.591Z,10.60
2018-12-07T04:44:04.699Z,10.60
2018-12-07T04:45:04.887Z,10.60
2018-12-07T04:46:05.064Z,10.60
2018-12-07T04:47:04.270Z,10.60
2018-12-07T04:48:04.599Z,10.60
2018-12-07T04:49:04.666Z,10.60
2018-12-07T04:50:04.932Z,10.60
2018-12-07T04:51:04.317Z,10.60
2018-12-07T04:52:04.833Z,10.60
2018-12-07T04:53:04.962Z,10.70
2018-12-07T04:54:04.324Z,10.70
2018-12-07T04:55:04.427Z,10.70
2018-12-07T04:56:05.037Z,10.60
2018-12-07T04:57:04.530Z,10.70
2018-12-07T04:58:04.617Z,10.70
2018-12-07T04:59:04.827Z,10.70
2018-12-07T05:00:04.355Z,10.70
2018-12-07T05:01:04.794Z,10.70
2018-12-07T05:02:05.091Z,10.70
2018-12-07T05:03:04.320Z,10.70
2018-12-07T05:04:04.819Z,10.70
2018-12-07T05:05:05.099Z,10.70
2018-12-07T05:06:04.602Z,10.70
2018-12-07T05:07:04.983Z,10.70
2018-12-07T05:08:04.515Z,10.70
2018-12-07T05:09:04.959Z,10.70
2018-12-07T05:10:04.391Z,10.70
2018-12-07T05:11:04.488Z,10.70
2018-12-07T05:12:04.728Z,10.70
2018-12-07T05:13:04.886Z,10.70
2018-12-07T05:14:05.118Z,10.70
2018-12-07T05:15:05.165Z,10.70
2018-12-07T05:16:05.497Z,10.70
2018-12-07T05:17:04.404Z,10.70
2018-12-07T05:18:04.423Z,10.70
2018-12-07T05:19:04.481Z,10.70
2018-12-07T05:20:04.956Z,10.70
2018-12-07T05:21:04.989Z,10.70
2018-12-07T05:22:04.293Z,10.70
2018-12-07T05:23:04.880Z,10.70
2018-12-07T05:24:04.965Z,10.70
2018-12-07T05:25:05.619Z,10.70
2018-12-07T05:26:04.713Z,10.70
2018-12-07T05:27:04.771Z,10.70
2018-12-07T05:28:09.303Z,10.70
2018-12-07T05:29:04.824Z,10.70
2018-12-07T05:30:04.968Z,10.70
2018-12-07T05:31:05.136Z,10.70
2018-12-07T05:32:04.763Z,10.70
2018-12-07T05:33:04.336Z,10.70
2018-12-07T05:34:04.417Z,10.70
2018-12-07T05:35:05.170Z,10.70
2018-12-07T05:36:04.639Z,10.70
2018-12-07T05:37:04.731Z,10.70
2018-12-07T05:38:04.819Z,10.70
2018-12-07T05:39:04.504Z,10.70
2018-12-07T05:40:04.512Z,10.70
2018-12-07T05:41:04.700Z,10.70
2018-12-07T05:42:04.782Z,10.70
2018-12-07T05:43:05.084Z,10.70
2018-12-07T05:44:05.117Z,10.70
2018-12-07T05:45:05.223Z,10.70
2018-12-07T05:46:04.414Z,10.70
2018-12-07T05:47:04.586Z,10.80
2018-12-07T05:48:10.060Z,10.80
2018-12-07T05:49:04.584Z,10.80
2018-12-07T05:50:04.796Z,10.80
2018-12-07T05:51:04.883Z,10.80
2018-12-07T05:52:05.194Z,10.80
2018-12-07T05:53:04.338Z,10.80
2018-12-07T05:54:04.430Z,10.80
2018-12-07T05:55:04.969Z,10.80
2018-12-07T05:56:04.725Z,10.80
2018-12-07T05:57:04.938Z,10.80
2018-12-07T05:58:04.521Z,10.80
2018-12-07T05:59:05.297Z,10.80
2018-12-07T06:00:04.138Z,10.80
2018-12-07T06:01:04.903Z,10.80
2018-12-07T06:02:04.436Z,10.80
2018-12-07T06:03:04.989Z,10.80
2018-12-07T06:04:05.073Z,10.80
2018-12-07T06:06:10.439Z,10.80
2018-12-07T06:07:05.779Z,10.80
2018-12-07T06:08:05.269Z,10.80
2018-12-07T06:09:05.204Z,10.80
2018-12-07T06:10:04.217Z,10.80
2018-12-07T06:11:04.401Z,10.80
2018-12-07T06:12:04.477Z,10.80
2018-12-07T06:13:04.492Z,10.80
2018-12-07T06:14:05.066Z,10.80
2018-12-07T06:15:04.303Z,10.80
2018-12-07T06:16:04.982Z,10.80
2018-12-07T06:17:05.065Z,10.80
2018-12-07T06:18:04.881Z,10.80
2018-12-07T06:19:05.080Z,10.80
2018-12-07T06:20:05.275Z,10.80
2018-12-07T06:21:04.587Z,10.80
2018-12-07T06:22:05.073Z,10.80
2018-12-07T06:23:04.418Z,10.80
2018-12-07T06:24:04.523Z,10.80
2018-12-07T06:25:04.631Z,10.80
2018-12-07T06:26:05.063Z,10.80
2018-12-07T06:27:04.405Z,10.80
2018-12-07T06:28:09.512Z,10.80
2018-12-07T06:29:04.919Z,10.80
2018-12-07T06:30:04.615Z,10.80
2018-12-07T06:31:04.703Z,10.80
2018-12-07T06:32:04.198Z,10.80
2018-12-07T06:33:05.246Z,10.80
2018-12-07T06:34:04.834Z,10.80
2018-12-07T06:35:04.593Z,10.80
2018-12-07T06:36:04.672Z,10.80
2018-12-07T06:37:04.752Z,10.80
2018-12-07T06:38:05.125Z,10.80
2018-12-07T06:39:05.275Z,10.80
2018-12-07T06:40:04.246Z,10.80
2018-12-07T06:41:04.348Z,10.80
2018-12-07T06:42:04.998Z,10.80
2018-12-07T06:43:04.982Z,10.80
2018-12-07T06:44:05.180Z,10.80
2018-12-07T06:45:04.672Z,10.80
2018-12-07T06:46:05.100Z,10.80
2018-12-07T06:47:04.276Z,10.80
2018-12-07T06:48:09.371Z,10.80
2018-12-07T06:49:04.713Z,10.80
2018-12-07T06:50:04.839Z,10.80
2018-12-07T06:51:04.317Z,10.80
2018-12-07T06:52:04.569Z,10.80
2018-12-07T06:53:04.652Z,10.80
2018-12-07T06:54:04.949Z,10.80
2018-12-07T06:55:04.176Z,10.80
2018-12-07T06:56:04.745Z,10.80
2018-12-07T06:57:04.225Z,10.80
2018-12-07T06:58:04.934Z,10.80
2018-12-07T06:59:04.311Z,10.80
2018-12-07T07:00:04.632Z,10.80
2018-12-07T07:01:04.633Z,10.80
2018-12-07T07:02:05.144Z,10.90
2018-12-07T07:03:04.336Z,10.80
2018-12-07T07:04:04.633Z,10.80
2018-12-07T07:05:04.907Z,10.80
2018-12-07T07:06:05.246Z,10.90
2018-12-07T07:07:05.324Z,10.80
2018-12-07T07:08:05.193Z,10.80
2018-12-07T07:09:05.244Z,10.80
2018-12-07T07:10:04.487Z,10.80
2018-12-07T07:11:04.604Z,10.90
2018-12-07T07:12:04.923Z,10.90
2018-12-07T07:13:04.900Z,10.90
2018-12-07T07:14:04.914Z,10.90
2018-12-07T07:15:05.032Z,10.90
2018-12-07T07:16:04.605Z,10.90
2018-12-07T07:17:04.295Z,10.90
2018-12-07T07:18:04.265Z,10.90
2018-12-07T07:19:04.456Z,10.90
2018-12-07T07:20:04.632Z,10.90
2018-12-07T07:21:04.286Z,10.90
2018-12-07T07:22:04.444Z,10.90
2018-12-07T07:23:04.505Z,10.90
2018-12-07T07:24:04.547Z,10.90
2018-12-07T07:25:04.844Z,10.90
2018-12-07T07:26:04.811Z,10.90
2018-12-07T07:27:04.466Z,10.90
2018-12-07T07:28:09.527Z,10.90
2018-12-07T07:29:04.347Z,10.90
2018-12-07T07:30:04.597Z,10.90
2018-12-07T07:31:04.661Z,10.80
2018-12-07T07:32:04.652Z,10.90
2018-12-07T07:33:05.131Z,10.90
2018-12-07T07:34:04.438Z,10.80
2018-12-07T07:35:05.184Z,10.90
2018-12-07T07:36:04.548Z,10.90
2018-12-07T07:37:04.591Z,10.80
2018-12-07T07:38:04.677Z,10.80
2018-12-07T07:39:05.113Z,10.80
2018-12-07T07:40:05.152Z,10.80
2018-12-07T07:41:04.628Z,10.80
2018-12-07T07:42:04.240Z,10.80
2018-12-07T07:43:04.757Z,10.80
2018-12-07T07:44:04.758Z,10.80
2018-12-07T07:45:04.946Z,10.80
2018-12-07T07:46:04.339Z,10.80
2018-12-07T07:47:04.598Z,10.80
2018-12-07T07:48:04.202Z,10.80
2018-12-07T07:49:04.585Z,10.80
2018-12-07T07:50:05.100Z,10.80
2018-12-07T07:51:04.505Z,10.80
2018-12-07T07:52:04.525Z,10.80
2018-12-07T07:53:05.160Z,10.80
2018-12-07T07:54:04.319Z,10.80
2018-12-07T07:55:04.770Z,10.80
2018-12-07T07:56:05.085Z,10.80
2018-12-07T07:57:04.284Z,10.80
2018-12-07T07:58:04.364Z,10.80
2018-12-07T07:59:04.537Z,10.80
2018-12-07T08:00:05.082Z,10.80
2018-12-07T08:01:04.526Z,10.80
2018-12-07T08:02:05.238Z,10.80
2018-12-07T08:03:04.314Z,10.80
2018-12-07T08:04:04.345Z,10.80
2018-12-07T08:05:09.787Z,10.80
2018-12-07T08:06:04.193Z,10.80
2018-12-07T08:07:04.419Z,10.80
2018-12-07T08:08:04.498Z,10.80
2018-12-07T08:09:04.570Z,10.80
2018-12-07T08:10:04.520Z,10.80
2018-12-07T08:11:04.710Z,10.80
2018-12-07T08:12:04.675Z,10.80
2018-12-07T08:13:04.297Z,10.80
2018-12-07T08:14:04.338Z,10.80
2018-12-07T08:15:04.553Z,10.80
2018-12-07T08:16:05.093Z,10.80
2018-12-07T08:17:04.870Z,10.80
2018-12-07T08:18:05.020Z,10.80
2018-12-07T08:19:05.147Z,10.80
2018-12-07T08:20:04.809Z,10.80
2018-12-07T08:21:05.405Z,10.80
2018-12-07T08:22:04.994Z,10.80
2018-12-07T08:23:04.258Z,10.80
2018-12-07T08:24:04.337Z,10.80
2018-12-07T08:25:04.364Z,10.80
2018-12-07T08:26:04.369Z,10.80
2018-12-07T08:27:04.499Z,10.80
2018-12-07T08:28:04.912Z,10.80
2018-12-07T08:29:04.982Z,10.80
2018-12-07T08:30:04.415Z,10.80
2018-12-07T08:31:04.987Z,10.80
2018-12-07T08:32:04.463Z,10.80
2018-12-07T08:33:04.697Z,10.80
2018-12-07T08:34:04.625Z,10.80
2018-12-07T08:35:04.236Z,10.80
2018-12-07T08:36:04.868Z,10.80
2018-12-07T08:37:05.043Z,10.80
2018-12-07T08:38:04.632Z,10.80
2018-12-07T08:39:09.615Z,10.80
2018-12-07T08:40:05.162Z,10.80
2018-12-07T08:41:04.459Z,10.90
2018-12-07T08:42:06.832Z,10.90
2018-12-07T08:43:04.677Z,10.90
2018-12-07T08:44:04.893Z,10.90
2018-12-07T08:45:05.204Z,10.90
2018-12-07T08:46:04.392Z,10.90
2018-12-07T08:47:04.802Z,10.90
2018-12-07T08:48:04.694Z,10.90
2018-12-07T08:49:05.196Z,10.90
2018-12-07T08:50:04.210Z,10.90
2018-12-07T08:51:04.361Z,10.90
2018-12-07T08:52:04.600Z,10.90
2018-12-07T08:53:04.975Z,10.90
2018-12-07T08:54:05.260Z,10.90
2018-12-07T08:55:04.523Z,10.90
2018-12-07T08:56:04.727Z,10.90
2018-12-07T08:57:04.274Z,10.90
2018-12-07T08:58:04.305Z,10.90
2018-12-07T08:59:04.795Z,10.90
2018-12-07T09:00:04.815Z,10.90
2018-12-07T09:01:04.455Z,10.90
2018-12-07T09:02:04.431Z,10.90
2018-12-07T09:03:04.865Z,10.90
2018-12-07T09:04:05.221Z,10.90
2018-12-07T09:05:04.707Z,10.90
2018-12-07T09:06:04.677Z,10.90
2018-12-07T09:07:05.168Z,10.90
2018-12-07T09:08:04.871Z,10.90
2018-12-07T09:09:04.467Z,10.90
2018-12-07T09:10:05.067Z,10.90
2018-12-07T09:11:04.956Z,10.90
2018-12-07T09:12:04.431Z,10.90
2018-12-07T09:13:04.635Z,10.90
2018-12-07T09:14:04.651Z,10.90
2018-12-07T09:15:04.636Z,11.00
2018-12-07T09:16:05.017Z,10.90
2018-12-07T09:17:05.027Z,11.00
2018-12-07T09:18:04.609Z,10.90
2018-12-07T09:19:04.699Z,10.90
2018-12-07T09:20:05.190Z,10.90
2018-12-07T09:21:04.701Z,10.90
2018-12-07T09:22:04.821Z,10.90
2018-12-07T09:23:04.545Z,10.90
2018-12-07T09:24:04.891Z,10.90
2018-12-07T09:25:05.016Z,10.90
2018-12-07T09:26:04.397Z,10.90
2018-12-07T09:27:04.949Z,11.00
2018-12-07T09:28:10.072Z,11.00
2018-12-07T09:29:04.510Z,11.00
2018-12-07T09:30:05.002Z,11.00
2018-12-07T09:31:04.927Z,11.00
2018-12-07T09:32:04.263Z,11.00
2018-12-07T09:33:04.675Z,11.00
2018-12-07T09:34:05.300Z,11.00
2018-12-07T09:35:04.385Z,11.00
2018-12-07T09:36:04.592Z,11.00
2018-12-07T09:37:04.298Z,11.00
2018-12-07T09:38:04.822Z,11.00
2018-12-07T09:39:04.375Z,11.00
2018-12-07T09:40:04.494Z,11.00
2018-12-07T09:41:04.621Z,11.00
2018-12-07T09:42:04.633Z,11.00
2018-12-07T09:43:04.224Z,11.00
2018-12-07T09:44:04.942Z,11.00
2018-12-07T09:45:05.117Z,11.00
2018-12-07T09:46:04.856Z,11.00
2018-12-07T09:47:05.022Z,11.00
2018-12-07T09:48:04.518Z,11.00
2018-12-07T09:49:04.696Z,11.00
2018-12-07T09:50:04.906Z,11.00
2018-12-07T09:51:04.311Z,11.00
2018-12-07T09:52:04.778Z,11.00
2018-12-07T09:53:05.112Z,11.00
2018-12-07T09:54:04.399Z,11.00
2018-12-07T09:55:04.553Z,11.00
2018-12-07T09:56:04.783Z,11.00
2018-12-07T09:57:04.771Z,11.00
2018-12-07T09:58:04.797Z,11.00
2018-12-07T09:59:04.705Z,11.00
2018-12-07T10:00:04.328Z,11.00
2018-12-07T10:01:04.754Z,11.00
2018-12-07T10:02:05.290Z,11.00
2018-12-07T10:03:04.660Z,11.00
2018-12-07T10:04:05.249Z,11.00
2018-12-07T10:05:04.703Z,11.00
2018-12-07T10:06:04.323Z,11.00
2018-12-07T10:07:04.645Z,11.10
2018-12-07T10:08:04.815Z,11.10
2018-12-07T10:09:04.867Z,11.10
2018-12-07T10:10:04.570Z,11.10
2018-12-07T10:11:04.565Z,11.10
2018-12-07T10:12:05.102Z,11.10
2018-12-07T10:13:07.830Z,11.10
2018-12-07T10:14:04.775Z,11.10
2018-12-07T10:15:05.085Z,11.10
2018-12-07T10:16:04.807Z,11.10
2018-12-07T10:17:05.192Z,11.10
2018-12-07T10:18:04.750Z,11.10
2018-12-07T10:19:04.933Z,11.10
2018-12-07T10:20:04.615Z,11.10
2018-12-07T10:21:04.852Z,11.10
2018-12-07T10:22:04.265Z,11.10
2018-12-07T10:23:04.513Z,11.10
2018-12-07T10:24:04.611Z,11.20
2018-12-07T10:25:04.603Z,11.20
2018-12-07T10:26:05.219Z,11.20
2018-12-07T10:27:04.752Z,11.20
2018-12-07T10:28:10.133Z,11.20
2018-12-07T10:29:04.522Z,11.20
2018-12-07T10:30:04.833Z,11.20
2018-12-07T10:31:04.382Z,11.20
2018-12-07T10:32:04.940Z,11.20
2018-12-07T10:33:05.198Z,11.20
2018-12-07T10:34:04.714Z,11.20
2018-12-07T10:35:05.207Z,11.20
2018-12-07T10:36:04.222Z,11.30
2018-12-07T10:37:04.338Z,11.30
2018-12-07T10:38:04.521Z,11.30
2018-12-07T10:39:05.127Z,11.30
2018-12-07T10:40:05.120Z,11.30
2018-12-07T10:41:04.408Z,11.30
2018-12-07T10:42:04.823Z,11.30
2018-12-07T10:43:04.919Z,11.30
2018-12-07T10:44:04.251Z,11.30
2018-12-07T10:45:04.797Z,11.30
2018-12-07T10:46:04.746Z,11.30
2018-12-07T10:47:04.229Z,11.20
2018-12-07T10:48:04.361Z,11.20
2018-12-07T10:49:04.312Z,11.20
2018-12-07T10:50:04.651Z,11.30
2018-12-07T10:51:08.062Z,11.20
2018-12-07T10:52:04.822Z,11.20
2018-12-07T10:53:04.371Z,11.20
2018-12-07T10:54:04.452Z,11.20
2018-12-07T10:55:04.489Z,11.20
2018-12-07T10:56:04.765Z,11.20
2018-12-07T10:57:04.241Z,11.20
2018-12-07T10:58:04.435Z,11.20
2018-12-07T10:59:04.426Z,11.10
2018-12-07T11:00:05.107Z,11.10
2018-12-07T11:01:04.568Z,11.10
2018-12-07T11:02:04.864Z,11.10
2018-12-07T11:03:04.391Z,11.10
2018-12-07T11:04:05.000Z,11.10
2018-12-07T11:05:04.614Z,11.10
2018-12-07T11:06:04.626Z,11.10
2018-12-07T11:07:05.075Z,11.10
2018-12-07T11:08:04.627Z,11.10
2018-12-07T11:09:05.102Z,11.10
2018-12-07T11:10:04.272Z,11.00
2018-12-07T11:11:04.499Z,11.00
2018-12-07T11:12:04.742Z,11.00
2018-12-07T11:13:04.232Z,11.00
2018-12-07T11:14:04.799Z,11.00
2018-12-07T11:15:05.014Z,11.00
2018-12-07T11:16:04.699Z,10.90
2018-12-07T11:17:04.794Z,10.90
2018-12-07T11:18:05.004Z,10.90
2018-12-07T11:19:04.413Z,10.90
2018-12-07T11:20:04.564Z,10.90
2018-12-07T11:21:04.752Z,10.90
2018-12-07T11:22:04.789Z,10.90
2018-12-07T11:23:05.145Z,10.90
2018-12-07T11:24:04.202Z,10.90
2018-12-07T11:25:04.332Z,10.90
2018-12-07T11:26:04.862Z,10.90
2018-12-07T11:27:05.629Z,10.90
2018-12-07T11:28:04.361Z,10.90
2018-12-07T11:29:04.684Z,10.80
2018-12-07T11:30:04.348Z,10.90
2018-12-07T11:31:04.292Z,10.80
2018-12-07T11:32:04.324Z,10.80
2018-12-07T11:33:04.527Z,10.80
2018-12-07T11:34:04.507Z,10.80
2018-12-07T11:35:05.089Z,10.80
2018-12-07T11:36:08.054Z,10.80
2018-12-07T11:37:04.846Z,10.80
2018-12-07T11:38:05.025Z,10.80
2018-12-07T11:39:04.230Z,10.80
2018-12-07T11:40:04.428Z,10.80
2018-12-07T11:41:04.689Z,10.80
2018-12-07T11:42:04.345Z,10.80
2018-12-07T11:43:04.462Z,10.80
2018-12-07T11:44:05.173Z,10.80
2018-12-07T11:45:04.270Z,10.80
2018-12-07T11:46:04.544Z,10.80
2018-12-07T11:47:05.089Z,10.80
2018-12-07T11:48:04.601Z,10.80
2018-12-07T11:49:04.805Z,10.80
2018-12-07T11:50:04.991Z,10.80
2018-12-07T11:51:04.472Z,10.80
2018-12-07T11:52:04.777Z,10.80
2018-12-07T11:53:04.927Z,10.80
2018-12-07T11:54:05.029Z,10.80
2018-12-07T11:55:04.486Z,10.80
2018-12-07T11:56:04.551Z,10.80
2018-12-07T11:57:04.581Z,10.80
2018-12-07T11:58:04.646Z,10.80
2018-12-07T11:59:04.869Z,10.80
2018-12-07T12:00:05.105Z,10.80
2018-12-07T12:01:04.323Z,10.80
2018-12-07T12:02:04.865Z,10.80
2018-12-07T12:03:04.572Z,10.80
2018-12-07T12:04:09.303Z,10.80
2018-12-07T12:05:04.787Z,10.80
2018-12-07T12:06:04.944Z,10.80
2018-12-07T12:07:04.486Z,10.80
2018-12-07T12:08:04.739Z,10.80
2018-12-07T12:09:04.843Z,10.80
2018-12-07T12:10:04.867Z,10.80
2018-12-07T12:11:05.095Z,10.80
2018-12-07T12:12:05.155Z,10.80
2018-12-07T12:13:05.160Z,10.80
2018-12-07T12:14:04.555Z,10.80
2018-12-07T12:15:04.647Z,10.80
2018-12-07T12:16:06.141Z,10.80
2018-12-07T12:17:04.956Z,10.80
2018-12-07T12:18:05.004Z,10.80
2018-12-07T12:19:04.460Z,10.80
2018-12-07T12:20:04.749Z,10.80
2018-12-07T12:21:04.911Z,10.80
2018-12-07T12:22:04.956Z,10.80
2018-12-07T12:23:05.042Z,10.80
2018-12-07T12:24:04.325Z,10.80
2018-12-07T12:25:04.554Z,10.80
2018-12-07T12:26:04.583Z,10.80
2018-12-07T12:27:04.866Z,10.80
2018-12-07T12:28:04.184Z,10.80
2018-12-07T12:29:04.327Z,10.90
2018-12-07T12:30:04.506Z,10.90
2018-12-07T12:31:04.238Z,10.90
2018-12-07T12:32:04.903Z,10.90
2018-12-07T12:33:04.397Z,10.90
2018-12-07T12:34:04.770Z,10.90
2018-12-07T12:35:05.049Z,10.90
2018-12-07T12:36:05.005Z,10.90
2018-12-07T12:37:04.605Z,10.90
2018-12-07T12:38:09.921Z,10.90
2018-12-07T12:39:04.356Z,10.90
2018-12-07T12:40:05.017Z,10.90
2018-12-07T12:41:04.218Z,10.90
2018-12-07T12:42:04.831Z,10.90
2018-12-07T12:43:04.839Z,11.00
2018-12-07T12:44:04.488Z,11.00
2018-12-07T12:45:04.670Z,11.00
2018-12-07T12:46:04.976Z,11.00
2018-12-07T12:47:04.994Z,11.00
2018-12-07T12:48:04.263Z,11.00
2018-12-07T12:49:04.396Z,11.00
2018-12-07T12:50:04.397Z,11.00
2018-12-07T12:51:04.494Z,11.00
2018-12-07T12:52:05.013Z,11.00
2018-12-07T12:53:04.935Z,11.00
2018-12-07T12:54:04.520Z,11.10
2018-12-07T12:55:04.511Z,11.10
2018-12-07T12:56:04.834Z,11.00
2018-12-07T12:57:05.156Z,11.00